Time,TemperatureF,DewpointF,PressureIn,WindDirection,WindDirectionDegrees,WindSpeedMPH,WindSpeedGustMPH,Humidity,HourlyPrecipIn,Conditions,Clouds,dailyrainin,SoftwareType,DateUTC
2013-07-03 00:15:00,77.5,75.0,30.08,NE,35,0.0,-999.0,92,-99.99,,,0.01,weatherlink.com 1.10,2013-07-03 04:15:00,
2013-07-03 00:30:00,77.6,75.0,30.08,NE,34,0.0,-999.0,92,-99.99,,,0.01,weatherlink.com 1.10,2013-07-03 04:30:00,
2013-07-03 00:45:00,77.7,75.0,30.08,SE,144,0.0,-999.0,92,-99.99,,,0.01,weatherlink.com 1.10,2013-07-03 04:45:00,
2013-07-03 01:00:00,78.0,76.0,30.08,SE,138,0.0,-999.0,92,-99.99,,,0.01,weatherlink.com 1.10,2013-07-03 05:00:00,
2013-07-03 01:15:00,78.4,76.0,30.07,SE,126,0.0,-999.0,91,-99.99,,,0.01,weatherlink.com 1.10,2013-07-03 05:15:00,
2013-07-03 01:45:00,79.0,76.0,30.06,ESE,110,0.0,-999.0,90,-99.99,,,0.00,weatherlink.com 1.10,2013-07-03 05:45:00,
2013-07-03 02:00:00,79.2,75.0,30.06,SE,124,0.0,-999.0,88,-99.99,,,0.00,weatherlink.com 1.10,2013-07-03 06:00:00,
2013-07-03 02:15:00,79.5,76.0,30.05,ESE,115,0.0,-999.0,88,-99.99,,,0.00,weatherlink.com 1.10,2013-07-03 06:15:00,
2013-07-03 02:45:00,79.5,76.0,30.05,SSE,159,0.0,-999.0,89,-99.99,,,0.00,weatherlink.com 1.10,2013-07-03 06:45:00,
2013-07-03 03:00:00,79.6,77.0,30.05,SW,219,2.0,-999.0,90,-99.99,,,0.00,weatherlink.com 1.10,2013-07-03 07:00:00,
2013-07-03 03:15:00,79.8,76.0,30.05,SE,140,1.0,-999.0,89,-99.99,,,0.00,weatherlink.com 1.10,2013-07-03 07:15:00,
2013-07-03 04:00:00,80.1,76.0,30.04,SE,136,0.0,-999.0,88,-99.99,,,0.00,weatherlink.com 1.10,2013-07-03 08:00:00,
2013-07-03 04:15:00,79.9,76.0,30.04,SSE,163,2.0,-999.0,87,-99.99,,,0.00,weatherlink.com 1.10,2013-07-03 08:15:00,
2013-07-03 04:45:00,79.5,74.0,30.05,SSE,163,5.0,-999.0,84,-99.99,,,0.00,weatherlink.com 1.10,2013-07-03 08:45:00,
2013-07-03 05:00:00,79.6,74.0,30.04,SE,130,5.0,-999.0,84,-99.99,,,0.00,weatherlink.com 1.10,2013-07-03 09:00:00,
2013-07-03 05:15:00,79.7,75.0,30.05,SE,137,4.0,-999.0,85,-99.99,,,0.00,weatherlink.com 1.10,2013-07-03 09:15:00,
2013-07-03 05:30:00,79.4,74.0,30.06,SSE,164,5.0,-999.0,83,-99.99,,,0.00,weatherlink.com 1.10,2013-07-03 09:30:00,
2013-07-03 05:45:00,78.2,74.0,30.05,SW,222,1.0,-999.0,86,-99.99,,,0.00,weatherlink.com 1.10,2013-07-03 09:45:00,
2013-07-03 06:00:00,77.9,75.0,30.05,ESE,102,6.0,-999.0,89,-99.99,,,0.00,weatherlink.com 1.10,2013-07-03 10:00:00,
2013-07-03 06:15:00,77.8,74.0,30.06,SE,144,1.0,-999.0,87,-99.99,,,0.00,weatherlink.com 1.10,2013-07-03 10:15:00,
2013-07-03 06:30:00,78.1,74.0,30.06,SE,126,1.0,-999.0,88,-99.99,,,0.00,weatherlink.com 1.10,2013-07-03 10:30:00,
2013-07-03 07:00:00,78.4,75.0,30.06,SE,124,1.0,-999.0,88,-99.99,,,0.00,weatherlink.com 1.10,2013-07-03 11:00:00,
2013-07-03 07:30:00,80.6,76.0,30.06,SE,133,2.0,-999.0,86,-99.99,,,0.00,weatherlink.com 1.10,2013-07-03 11:30:00,
2013-07-03 07:45:00,82.0,77.0,30.06,SSE,165,5.0,-999.0,85,-99.99,,,0.00,weatherlink.com 1.10,2013-07-03 11:45:00,
2013-07-03 08:00:00,83.2,77.0,30.07,SSE,155,9.0,-999.0,82,-99.99,,,0.00,weatherlink.com 1.10,2013-07-03 12:00:00,
2013-07-03 08:30:00,83.0,77.0,30.08,SSE,152,0.0,-999.0,83,-99.99,,,0.00,weatherlink.com 1.10,2013-07-03 12:30:00,
2013-07-03 08:46:00,83.8,78.0,30.08,ESE,123,8.0,-999.0,82,-99.99,,,0.00,weatherlink.com 1.10,2013-07-03 12:46:00,
2013-07-03 09:00:00,84.4,78.0,30.08,South,170,5.0,-999.0,81,-99.99,,,0.00,weatherlink.com 1.10,2013-07-03 13:00:00,
2013-07-03 09:15:00,85.3,77.0,30.08,SE,136,6.0,-999.0,77,-99.99,,,0.00,weatherlink.com 1.10,2013-07-03 13:15:00,
2013-07-03 09:30:00,85.2,77.0,30.09,ESE,108,8.0,-999.0,75,-99.99,,,0.00,weatherlink.com 1.10,2013-07-03 13:30:00,
2013-07-03 09:45:00,85.2,76.0,30.09,SSE,147,12.0,-999.0,74,-99.99,,,0.00,weatherlink.com 1.10,2013-07-03 13:45:00,
2013-07-03 10:00:00,85.9,76.0,30.09,ESE,121,8.0,-999.0,73,-99.99,,,0.00,weatherlink.com 1.10,2013-07-03 14:00:00,
2013-07-03 10:31:00,85.1,76.0,30.10,SSE,147,7.0,-999.0,74,-99.99,,,0.00,weatherlink.com 1.10,2013-07-03 14:31:00,
2013-07-03 11:01:00,83.7,78.0,30.10,South,169,2.0,-999.0,84,-99.99,,,0.01,weatherlink.com 1.10,2013-07-03 15:01:00,
2013-07-03 11:16:00,85.4,78.0,30.11,South,179,7.0,-999.0,79,-99.99,,,0.01,weatherlink.com 1.10,2013-07-03 15:16:00,
2013-07-03 11:31:00,86.9,79.0,30.11,SE,130,4.0,-999.0,76,-99.99,,,0.01,weatherlink.com 1.10,2013-07-03 15:31:00,
2013-07-03 11:46:00,86.5,78.0,30.10,ESE,112,6.0,-999.0,75,-99.99,,,0.01,weatherlink.com 1.10,2013-07-03 15:46:00,
2013-07-03 12:01:00,86.0,77.0,30.11,ESE,110,7.0,-999.0,75,-99.99,,,0.01,weatherlink.com 1.10,2013-07-03 16:01:00,
2013-07-03 12:16:00,86.4,77.0,30.11,SSE,156,5.0,-999.0,74,-99.99,,,0.01,weatherlink.com 1.10,2013-07-03 16:16:00,
2013-07-03 12:31:00,87.3,76.0,30.11,SSE,150,10.0,-999.0,68,-99.99,,,0.01,weatherlink.com 1.10,2013-07-03 16:31:00,
2013-07-03 12:46:00,87.5,77.0,30.10,South,191,9.0,-999.0,71,-99.99,,,0.01,weatherlink.com 1.10,2013-07-03 16:46:00,
2013-07-03 13:01:00,87.9,77.0,30.10,SSW,203,10.0,-999.0,71,-99.99,,,0.01,weatherlink.com 1.10,2013-07-03 17:01:00,
2013-07-03 13:16:00,88.3,77.0,30.09,ESE,123,5.0,-999.0,69,-99.99,,,0.01,weatherlink.com 1.10,2013-07-03 17:16:00,
2013-07-03 13:31:00,88.1,76.0,30.09,SE,131,14.0,-999.0,67,-99.99,,,0.01,weatherlink.com 1.10,2013-07-03 17:31:00,
2013-07-03 13:46:00,87.7,77.0,30.09,SSE,153,7.0,-999.0,71,-99.99,,,0.01,weatherlink.com 1.10,2013-07-03 17:46:00,
2013-07-03 14:16:00,87.4,77.0,30.07,SSE,155,6.0,-999.0,72,-99.99,,,0.01,weatherlink.com 1.10,2013-07-03 18:16:00,
2013-07-03 14:31:00,88.0,78.0,30.07,ESE,115,7.0,-999.0,71,-99.99,,,0.01,weatherlink.com 1.10,2013-07-03 18:31:00,
2013-07-03 14:46:00,87.9,77.0,30.07,South,182,12.0,-999.0,71,-99.99,,,0.01,weatherlink.com 1.10,2013-07-03 18:46:00,
2013-07-03 15:31:00,87.3,76.0,30.06,SSE,156,7.0,-999.0,70,-99.99,,,0.01,weatherlink.com 1.10,2013-07-03 19:31:00,
2013-07-03 16:16:00,87.6,77.0,30.05,South,178,9.0,-999.0,70,-99.99,,,0.01,weatherlink.com 1.10,2013-07-03 20:16:00,
2013-07-03 16:31:00,87.0,77.0,30.05,South,173,10.0,-999.0,71,-99.99,,,0.01,weatherlink.com 1.10,2013-07-03 20:31:00,
2013-07-03 16:46:00,86.4,76.0,30.06,SSW,199,7.0,-999.0,71,-99.99,,,0.01,weatherlink.com 1.10,2013-07-03 20:46:00,
2013-07-03 17:16:00,81.2,76.0,30.06,ESE,112,5.0,-999.0,85,-99.99,,,0.06,weatherlink.com 1.10,2013-07-03 21:16:00,
2013-07-03 17:31:00,81.1,75.0,30.05,SSE,167,6.0,-999.0,81,-99.99,,,0.06,weatherlink.com 1.10,2013-07-03 21:31:00,
2013-07-03 17:46:00,80.3,73.0,30.06,SSE,160,12.0,-999.0,79,-99.99,,,0.06,weatherlink.com 1.10,2013-07-03 21:46:00,
2013-07-03 18:01:00,81.3,73.0,30.06,ESE,119,4.0,-999.0,77,-99.99,,,0.06,weatherlink.com 1.10,2013-07-03 22:01:00,
2013-07-03 18:16:00,81.9,74.0,30.06,ESE,111,0.0,-999.0,76,-99.99,,,0.06,weatherlink.com 1.10,2013-07-03 22:16:00,
2013-07-03 18:31:00,82.4,74.0,30.06,SE,143,1.0,-999.0,76,-99.99,,,0.06,weatherlink.com 1.10,2013-07-03 22:31:00,
2013-07-03 18:46:00,82.7,75.0,30.07,ESE,123,2.0,-999.0,77,-99.99,,,0.06,weatherlink.com 1.10,2013-07-03 22:46:00,
2013-07-03 19:01:00,82.6,76.0,30.07,SSW,211,1.0,-999.0,79,-99.99,,,0.06,weatherlink.com 1.10,2013-07-03 23:01:00,
2013-07-03 19:16:00,82.4,76.0,30.07,South,189,6.0,-999.0,80,-99.99,,,0.06,weatherlink.com 1.10,2013-07-03 23:16:00,
2013-07-03 19:31:00,82.2,76.0,30.07,ENE,58,3.0,-999.0,82,-99.99,,,0.06,weatherlink.com 1.10,2013-07-03 23:31:00,
2013-07-03 19:46:00,81.8,76.0,30.08,SE,127,6.0,-999.0,83,-99.99,,,0.06,weatherlink.com 1.10,2013-07-03 23:46:00,
2013-07-03 20:01:00,81.5,76.0,30.09,SE,138,4.0,-999.0,82,-99.99,,,0.06,weatherlink.com 1.10,2013-07-04 00:01:00,
2013-07-03 20:16:00,81.1,75.0,30.09,SE,130,4.0,-999.0,81,-99.99,,,0.06,weatherlink.com 1.10,2013-07-04 00:16:00,
2013-07-03 20:46:00,80.6,75.0,30.09,SE,141,2.0,-999.0,84,-99.99,,,0.06,weatherlink.com 1.10,2013-07-04 00:46:00,
2013-07-03 21:01:00,80.5,75.0,30.09,South,180,1.0,-999.0,84,-99.99,,,0.06,weatherlink.com 1.10,2013-07-04 01:01:00,
2013-07-03 21:16:00,80.4,76.0,30.09,SSE,147,2.0,-999.0,85,-99.99,,,0.06,weatherlink.com 1.10,2013-07-04 01:16:00,
2013-07-03 21:31:00,80.4,76.0,30.09,SSE,157,0.0,-999.0,85,-99.99,,,0.06,weatherlink.com 1.10,2013-07-04 01:31:00,
2013-07-03 22:16:00,80.1,76.0,30.10,ESE,107,0.0,-999.0,86,-99.99,,,0.06,weatherlink.com 1.10,2013-07-04 02:16:00,
2013-07-03 22:31:00,80.0,76.0,30.11,East,100,0.0,-999.0,86,-99.99,,,0.06,weatherlink.com 1.10,2013-07-04 02:31:00,
2013-07-03 22:46:00,79.9,75.0,30.11,SE,136,0.0,-999.0,85,-99.99,,,0.06,weatherlink.com 1.10,2013-07-04 02:46:00,
2013-07-03 23:01:00,79.8,75.0,30.11,SE,136,0.0,-999.0,86,-99.99,,,0.06,weatherlink.com 1.10,2013-07-04 03:01:00,
2013-07-03 23:31:00,80.2,76.0,30.11,SSE,155,2.0,-999.0,86,-99.99,,,0.06,weatherlink.com 1.10,2013-07-04 03:31:00,
2013-07-03 23:46:00,81.5,76.0,30.12,SE,145,2.0,-999.0,83,-99.99,,,0.06,weatherlink.com 1.10,2013-07-04 03:46:00,